Time;durP1;ratioP1;P1;durP2;ratioP2;P2;SDS_P1;SDS_P2;PMS_P1;PMS_P2;Temp;Humidity;BMP_temperature;BMP_pressure;BME280_temperature;BME280_humidity;BME280_pressure;Samples;Min_cycle;Max_cycle;Signal;HPM_P1;HPM_P2
2021/01/15 00:00:49;;;;;;;29.23;13.67;;;1.10;99.90;;;;;;5029224;28;20471;-52
2021/01/15 00:03:16;;;;;;;22.30;12.20;;;1.10;99.90;;;;;;5025171;28;20975;-53
2021/01/15 00:05:43;;;;;;;24.27;12.90;;;1.10;99.90;;;;;;5013314;28;20898;-52
2021/01/15 00:08:10;;;;;;;23.57;11.87;;;1.10;99.90;;;;;;5016472;28;20465;-53
2021/01/15 00:10:36;;;;;;;24.47;12.20;;;1.10;99.90;;;;;;5018488;28;20495;-52
2021/01/15 00:13:03;;;;;;;25.60;12.63;;;1.00;99.90;;;;;;5023126;28;21015;-52
2021/01/15 00:15:29;;;;;;;24.23;12.43;;;1.10;99.90;;;;;;5014698;28;20481;-51
2021/01/15 00:17:56;;;;;;;22.97;11.73;;;1.10;99.90;;;;;;5030437;28;20456;-51
2021/01/15 00:20:22;;;;;;;22.13;11.63;;;1.10;99.90;;;;;;5032064;28;20480;-51
2021/01/15 00:22:50;;;;;;;23.13;11.10;;;1.10;99.90;;;;;;5032906;28;20455;-50
2021/01/15 00:25:16;;;;;;;22.27;11.40;;;1.20;99.90;;;;;;5027268;28;20464;-51
2021/01/15 00:27:43;;;;;;;23.97;12.17;;;1.10;99.90;;;;;;5017784;28;20460;-51
2021/01/15 00:30:10;;;;;;;23.37;13.37;;;1.20;99.90;;;;;;5027932;28;20535;-51
2021/01/15 00:32:38;;;;;;;21.60;11.30;;;1.20;99.90;;;;;;5019639;28;20462;-51
2021/01/15 00:35:07;;;;;;;23.23;12.13;;;1.20;99.90;;;;;;5012827;28;20463;-51
2021/01/15 00:37:34;;;;;;;27.30;13.30;;;1.30;99.90;;;;;;5021981;28;20608;-51
2021/01/15 00:40:02;;;;;;;21.93;12.00;;;1.20;99.90;;;;;;5017548;28;20484;-51
2021/01/15 00:42:29;;;;;;;21.27;12.10;;;1.30;99.90;;;;;;5024036;28;20458;-51
2021/01/15 00:44:57;;;;;;;23.10;12.23;;;1.30;99.90;;;;;;5030136;28;20456;-51
2021/01/15 00:47:24;;;;;;;22.13;12.23;;;1.30;99.90;;;;;;5031674;28;20499;-51
2021/01/15 00:49:51;;;;;;;20.97;11.73;;;1.30;99.90;;;;;;5018185;28;20497;-51
2021/01/15 00:52:18;;;;;;;20.67;11.80;;;1.30;99.90;;;;;;5012104;28;20507;-51
2021/01/15 00:54:44;;;;;;;23.70;12.40;;;1.40;99.90;;;;;;5021628;28;20449;-51
2021/01/15 00:57:12;;;;;;;21.33;12.10;;;1.40;99.90;;;;;;5031175;28;20571;-51
2021/01/15 00:59:38;;;;;;;20.10;11.40;;;1.40;99.90;;;;;;5031707;28;20476;-51
2021/01/15 01:02:05;;;;;;;27.10;13.73;;;1.40;99.90;;;;;;5031285;28;20983;-51
2021/01/15 01:04:31;;;;;;;29.70;14.33;;;1.30;99.90;;;;;;5016621;28;20464;-51
2021/01/15 01:06:58;;;;;;;23.60;13.50;;;1.00;99.90;;;;;;5019649;28;20489;-51
2021/01/15 01:09:24;;;;;;;26.27;14.27;;;1.00;99.90;;;;;;5011867;28;20554;-51
2021/01/15 01:11:51;;;;;;;27.67;13.90;;;1.20;99.90;;;;;;5016799;28;20490;-51
2021/01/15 01:14:18;;;;;;;24.17;12.93;;;1.20;99.90;;;;;;5031576;28;20463;-51
2021/01/15 01:16:45;;;;;;;26.47;12.97;;;1.30;99.90;;;;;;5019440;28;20449;-51
2021/01/15 01:19:11;;;;;;;23.77;13.10;;;1.20;99.90;;;;;;5027380;28;20460;-51
2021/01/15 01:21:38;;;;;;;24.50;13.07;;;1.30;99.90;;;;;;5031528;28;20451;-51
2021/01/15 01:24:11;;;;;;;21.60;11.20;;;1.30;99.90;;;;;;5021905;28;20454;-51
2021/01/15 01:26:41;;;;;;;25.43;13.20;;;1.30;99.90;;;;;;5013832;28;20489;-51
2021/01/15 01:29:10;;;;;;;27.50;14.03;;;1.30;99.90;;;;;;5013887;28;20468;-51
2021/01/15 01:31:37;;;;;;;29.93;14.10;;;1.30;99.90;;;;;;5026391;28;20455;-51
2021/01/15 01:34:03;;;;;;;24.50;13.40;;;1.30;99.90;;;;;;5030948;28;20455;-51
2021/01/15 01:36:30;;;;;;;27.00;13.60;;;1.30;99.90;;;;;;5013906;28;20448;-51
2021/01/15 01:38:56;;;;;;;26.10;14.40;;;1.20;99.90;;;;;;5017343;28;20455;-51
2021/01/15 01:41:23;;;;;;;27.03;14.03;;;1.00;99.90;;;;;;5024390;28;20473;-51
2021/01/15 01:43:49;;;;;;;25.63;13.13;;;0.90;99.90;;;;;;5013081;28;21182;-51
2021/01/15 01:46:16;;;;;;;26.97;13.17;;;0.90;99.90;;;;;;5030814;28;20528;-50
2021/01/15 01:48:44;;;;;;;23.73;12.47;;;0.90;99.90;;;;;;5011485;28;20455;-51
2021/01/15 01:51:13;;;;;;;23.40;12.10;;;0.90;99.90;;;;;;5012219;28;20998;-51
2021/01/15 01:53:41;;;;;;;20.83;11.80;;;1.00;99.90;;;;;;5030376;28;20455;-51
2021/01/15 01:56:07;;;;;;;19.77;10.27;;;1.00;99.90;;;;;;5030876;28;20498;-51
2021/01/15 01:58:35;;;;;;;14.50;8.07;;;1.00;99.90;;;;;;5027231;28;20453;-52
2021/01/15 02:01:03;;;;;;;15.97;8.40;;;1.00;99.90;;;;;;5029082;28;20480;-51
2021/01/15 02:03:30;;;;;;;10.87;6.60;;;1.00;99.90;;;;;;5012480;28;20460;-51
2021/01/15 02:05:58;;;;;;;9.97;5.67;;;1.00;99.90;;;;;;5010926;28;20483;-51
2021/01/15 02:08:27;;;;;;;9.90;5.97;;;0.90;99.90;;;;;;5011319;28;20455;-51
2021/01/15 02:11:03;;;;;;;6.60;4.17;;;0.90;99.90;;;;;;5010994;28;20508;-51
2021/01/15 02:13:37;;;;;;;6.70;4.20;;;0.90;99.90;;;;;;5011088;28;20536;-51
2021/01/15 02:16:06;;;;;;;7.13;4.00;;;0.90;99.90;;;;;;5029060;28;20449;-51
2021/01/15 02:18:38;;;;;;;5.83;3.90;;;0.90;99.90;;;;;;5028225;28;20983;-51
2021/01/15 02:21:46;;;;;;;5.17;3.43;;;0.80;99.90;;;;;;5030681;28;21160;-51
2021/01/15 02:24:31;;;;;;;7.47;4.20;;;0.90;99.90;;;;;;5011022;28;20460;-51
2021/01/15 02:27:20;;;;;;;5.27;4.00;;;0.80;99.90;;;;;;5010827;28;20485;-51
2021/01/15 02:30:03;;;;;;;6.20;4.10;;;0.70;99.90;;;;;;5010842;28;20825;-51
2021/01/15 02:32:43;;;;;;;9.43;4.73;;;0.80;99.90;;;;;;5014563;28;20547;-51
2021/01/15 02:35:25;;;;;;;8.53;5.17;;;0.80;99.90;;;;;;5015920;28;21146;-51
2021/01/15 02:38:27;;;;;;;5.40;3.77;;;0.80;99.90;;;;;;5030690;28;20451;-51
2021/01/15 02:41:17;;;;;;;9.20;5.30;;;0.80;99.90;;;;;;5026156;28;20505;-51
2021/01/15 02:43:48;;;;;;;6.83;4.43;;;0.80;99.90;;;;;;5028807;28;20892;-51
2021/01/15 02:46:17;;;;;;;7.30;4.57;;;0.70;99.90;;;;;;5021239;28;20483;-51
2021/01/15 02:48:47;;;;;;;7.73;4.83;;;0.70;99.90;;;;;;5030369;28;20967;-51
2021/01/15 02:51:15;;;;;;;8.57;5.27;;;0.60;99.90;;;;;;5020579;28;20864;-51
2021/01/15 02:53:41;;;;;;;9.80;5.50;;;0.50;99.90;;;;;;5011991;28;20832;-51
2021/01/15 02:56:08;;;;;;;7.13;4.47;;;0.40;99.90;;;;;;5010456;28;20451;-51
2021/01/15 02:58:35;;;;;;;7.17;5.20;;;0.50;99.90;;;;;;5011681;28;20450;-51
2021/01/15 03:01:01;;;;;;;7.63;4.60;;;0.60;99.90;;;;;;5019754;28;20521;-51
2021/01/15 03:03:33;;;;;;;5.30;4.30;;;0.80;99.90;;;;;;5025091;28;20522;-51
2021/01/15 03:06:05;;;;;;;6.97;4.63;;;0.90;99.90;;;;;;5012362;28;20484;-51
2021/01/15 03:08:34;;;;;;;7.17;5.53;;;0.90;99.90;;;;;;5014326;28;20448;-51
2021/01/15 03:11:01;;;;;;;8.53;5.87;;;0.90;99.90;;;;;;5014066;28;20848;-51
2021/01/15 03:13:29;;;;;;;8.67;6.77;;;0.90;99.90;;;;;;5015686;28;20507;-51
2021/01/15 03:16:00;;;;;;;7.33;5.70;;;1.00;99.90;;;;;;5030881;28;20974;-51
2021/01/15 03:18:28;;;;;;;8.40;5.80;;;1.00;99.90;;;;;;5032359;28;20956;-51
2021/01/15 03:20:55;;;;;;;10.27;6.07;;;0.90;99.90;;;;;;5033558;28;20475;-51
2021/01/15 03:23:22;;;;;;;10.50;5.83;;;0.90;99.90;;;;;;5031483;28;20454;-50
2021/01/15 03:25:49;;;;;;;10.33;5.93;;;0.80;99.90;;;;;;5014967;28;20487;-51
2021/01/15 03:28:16;;;;;;;9.40;5.10;;;0.80;99.90;;;;;;5015118;28;20922;-50
2021/01/15 03:30:42;;;;;;;9.53;5.27;;;0.70;99.90;;;;;;5021790;28;20478;-51
2021/01/15 03:33:09;;;;;;;8.80;4.60;;;0.80;99.90;;;;;;5018517;28;20456;-51
2021/01/15 03:35:35;;;;;;;8.90;5.60;;;0.80;99.90;;;;;;5024234;28;20482;-51
2021/01/15 03:38:04;;;;;;;7.37;4.90;;;0.80;99.90;;;;;;5033342;28;20460;-51
2021/01/15 03:40:33;;;;;;;6.83;4.40;;;1.00;99.90;;;;;;5032480;28;20471;-50
2021/01/15 03:43:00;;;;;;;8.33;5.37;;;1.00;99.90;;;;;;5031925;28;20460;-51
2021/01/15 03:45:28;;;;;;;8.83;5.60;;;0.80;99.90;;;;;;5030231;28;20451;-51
2021/01/15 03:47:55;;;;;;;9.60;5.60;;;0.90;99.90;;;;;;5014652;28;21023;-51
2021/01/15 03:50:21;;;;;;;9.63;5.57;;;0.90;99.90;;;;;;5021240;28;20492;-51
2021/01/15 03:52:48;;;;;;;7.90;4.73;;;0.80;99.90;;;;;;5033227;28;20459;-51
2021/01/15 03:55:15;;;;;;;8.40;4.50;;;0.70;99.90;;;;;;5020976;28;20456;-51
2021/01/15 03:57:43;;;;;;;9.77;5.20;;;0.50;99.90;;;;;;5014668;28;20447;-51
2021/01/15 04:00:11;;;;;;;7.87;4.43;;;0.30;99.90;;;;;;5023305;28;20471;-50
2021/01/15 04:02:37;;;;;;;12.63;5.93;;;0.20;99.90;;;;;;5014170;28;20509;-51
2021/01/15 04:05:09;;;;;;;10.47;5.17;;;0.10;99.90;;;;;;5017147;28;21203;-50
2021/01/15 04:07:35;;;;;;;9.43;5.20;;;0.00;99.90;;;;;;5032311;28;20841;-51
2021/01/15 04:10:02;;;;;;;8.50;5.10;;;0.00;99.90;;;;;;5031210;28;20474;-51
2021/01/15 04:12:30;;;;;;;10.53;4.93;;;0.10;99.90;;;;;;5031325;28;20462;-51
2021/01/15 04:14:58;;;;;;;10.67;5.00;;;0.10;99.90;;;;;;5030828;28;20458;-51
2021/01/15 04:17:24;;;;;;;7.77;4.17;;;0.20;99.90;;;;;;5024201;28;20851;-51
2021/01/15 04:19:51;;;;;;;7.90;4.40;;;0.20;99.90;;;;;;5027480;28;20478;-50
2021/01/15 04:22:17;;;;;;;8.23;4.70;;;0.20;99.90;;;;;;5032587;28;20458;-51
2021/01/15 04:24:44;;;;;;;6.77;4.20;;;0.10;99.90;;;;;;5032591;28;20575;-50
2021/01/15 04:27:10;;;;;;;7.80;4.03;;;0.20;99.90;;;;;;5032569;28;20514;-51
2021/01/15 04:29:37;;;;;;;7.73;4.60;;;0.10;99.90;;;;;;5032490;28;20864;-51
2021/01/15 04:32:06;;;;;;;6.97;3.77;;;0.10;99.90;;;;;;5032899;28;20453;-51
2021/01/15 04:34:32;;;;;;;5.87;3.57;;;0.20;99.90;;;;;;5021119;28;20510;-51
2021/01/15 04:36:59;;;;;;;7.10;3.90;;;0.30;99.90;;;;;;5032764;28;20452;-50
2021/01/15 04:39:25;;;;;;;7.07;3.57;;;0.40;99.90;;;;;;5032202;28;20465;-51
2021/01/15 04:41:53;;;;;;;4.93;3.40;;;0.40;99.90;;;;;;5032329;28;20466;-51
2021/01/15 04:44:20;;;;;;;5.17;3.27;;;0.40;99.90;;;;;;5032288;28;20482;-50
2021/01/15 04:46:49;;;;;;;8.53;3.77;;;0.30;99.90;;;;;;5032212;28;20483;-51
2021/01/15 04:49:22;;;;;;;6.83;3.73;;;0.20;99.90;;;;;;5031453;28;20462;-50
2021/01/15 04:51:56;;;;;;;6.10;3.93;;;0.20;99.90;;;;;;5032320;28;20454;-51
2021/01/15 04:54:35;;;;;;;7.13;4.20;;;0.20;99.90;;;;;;5031714;28;20901;-51
2021/01/15 04:57:05;;;;;;;6.03;3.33;;;0.10;99.90;;;;;;5030116;28;20480;-51
2021/01/15 04:59:39;;;;;;;7.57;3.73;;;0.10;99.90;;;;;;5030086;28;20568;-50
2021/01/15 05:02:08;;;;;;;7.90;4.07;;;0.10;99.90;;;;;;5030254;28;20477;-51
2021/01/15 05:04:36;;;;;;;5.90;3.83;;;0.10;99.90;;;;;;5023146;28;20479;-51
2021/01/15 05:07:05;;;;;;;8.73;4.50;;;0.20;99.90;;;;;;5010081;28;20474;-51
2021/01/15 05:09:42;;;;;;;7.70;4.67;;;0.20;99.90;;;;;;5009997;28;20487;-51
2021/01/15 05:12:11;;;;;;;8.97;4.00;;;0.20;99.90;;;;;;5011348;28;20506;-51
2021/01/15 05:14:38;;;;;;;7.50;4.33;;;0.20;99.90;;;;;;5012058;28;20447;-51
2021/01/15 05:17:06;;;;;;;10.47;4.80;;;0.10;99.90;;;;;;5012115;28;20442;-51
2021/01/15 05:19:33;;;;;;;7.83;4.00;;;0.10;99.90;;;;;;5012712;28;20477;-51
2021/01/15 05:22:00;;;;;;;8.70;4.27;;;0.10;99.90;;;;;;5020795;28;20897;-51
2021/01/15 05:24:27;;;;;;;10.70;4.63;;;0.10;99.90;;;;;;5028354;28;20446;-51
2021/01/15 05:26:54;;;;;;;7.77;4.37;;;0.00;99.90;;;;;;5014272;28;20990;-51
2021/01/15 05:29:21;;;;;;;10.50;4.17;;;0.10;99.90;;;;;;5027638;28;20613;-51
2021/01/15 05:31:52;;;;;;;7.63;4.50;;;0.10;99.90;;;;;;5031625;28;20827;-50
2021/01/15 05:34:19;;;;;;;9.40;4.67;;;0.00;99.90;;;;;;5025645;28;20448;-51
2021/01/15 05:36:47;;;;;;;6.20;4.23;;;-0.10;99.90;;;;;;5028463;28;20455;-51
2021/01/15 05:39:17;;;;;;;12.47;5.53;;;-0.10;99.90;;;;;;5031178;28;20454;-51
2021/01/15 05:41:45;;;;;;;9.23;4.67;;;-0.10;99.90;;;;;;5031358;28;20446;-51
2021/01/15 05:44:12;;;;;;;10.37;5.50;;;-0.20;99.90;;;;;;5031256;28;20453;-51
2021/01/15 05:46:48;;;;;;;11.80;5.33;;;-0.20;99.90;;;;;;5031329;28;20482;-51
2021/01/15 05:49:14;;;;;;;10.40;5.27;;;-0.20;99.90;;;;;;5026983;28;20828;-51
2021/01/15 05:51:42;;;;;;;11.47;5.63;;;-0.20;99.90;;;;;;5013545;28;20450;-51
2021/01/15 05:54:11;;;;;;;10.20;5.10;;;-0.20;99.90;;;;;;5019908;28;20451;-51
2021/01/15 05:56:43;;;;;;;13.40;7.00;;;-0.20;99.90;;;;;;5022691;28;20447;-51
2021/01/15 05:59:11;;;;;;;11.03;5.40;;;-0.20;99.90;;;;;;5035322;28;20449;-51
2021/01/15 06:01:49;;;;;;;13.27;6.37;;;-0.20;99.90;;;;;;5020676;28;20448;-51
2021/01/15 06:04:17;;;;;;;15.60;7.23;;;-0.20;99.90;;;;;;5022494;28;20450;-51
2021/01/15 06:06:44;;;;;;;12.70;6.40;;;-0.20;99.90;;;;;;5022459;28;21012;-50
2021/01/15 06:09:12;;;;;;;12.47;6.17;;;-0.10;99.90;;;;;;5019542;28;20457;-50
2021/01/15 06:11:41;;;;;;;14.10;5.93;;;-0.20;99.90;;;;;;5030885;28;20830;-50
2021/01/15 06:14:22;;;;;;;12.87;6.30;;;-0.20;99.90;;;;;;5030846;28;20457;-50
2021/01/15 06:16:49;;;;;;;14.07;7.10;;;-0.30;99.90;;;;;;5030897;28;20453;-50
2021/01/15 06:19:16;;;;;;;14.53;6.60;;;-0.30;99.90;;;;;;5028540;28;20851;-50
2021/01/15 06:21:53;;;;;;;12.87;6.60;;;-0.30;99.90;;;;;;5028657;28;20506;-50
2021/01/15 06:24:23;;;;;;;15.37;7.30;;;-0.30;99.90;;;;;;5014669;28;20477;-50
2021/01/15 06:27:06;;;;;;;14.63;7.60;;;-0.30;99.90;;;;;;5011861;28;20485;-51
2021/01/15 06:29:44;;;;;;;16.27;6.93;;;-0.20;99.90;;;;;;5017430;28;20477;-51
2021/01/15 06:32:11;;;;;;;15.70;6.53;;;-0.30;99.90;;;;;;5017198;28;20477;-51
2021/01/15 06:34:48;;;;;;;13.83;6.70;;;-0.30;99.90;;;;;;5012517;28;20446;-50
2021/01/15 06:37:19;;;;;;;12.87;6.30;;;-0.40;99.90;;;;;;5028658;28;20466;-51
2021/01/15 06:40:12;;;;;;;13.80;6.60;;;-0.40;99.90;;;;;;5010197;28;20505;-50
2021/01/15 06:42:49;;;;;;;13.37;6.90;;;-0.50;99.90;;;;;;5015096;28;20447;-50
2021/01/15 06:45:17;;;;;;;12.80;6.10;;;-0.50;99.90;;;;;;5014877;28;20959;-50
2021/01/15 06:47:45;;;;;;;16.43;7.47;;;-0.50;99.90;;;;;;5014661;28;20492;-51
2021/01/15 06:50:17;;;;;;;13.97;7.00;;;-0.50;99.90;;;;;;5031902;28;20512;-50
2021/01/15 06:52:48;;;;;;;18.50;7.50;;;-0.60;99.90;;;;;;5033289;28;20453;-50
2021/01/15 06:55:16;;;;;;;14.27;7.13;;;-0.50;99.90;;;;;;5014785;28;20473;-51
2021/01/15 06:57:47;;;;;;;18.00;7.30;;;-0.50;99.90;;;;;;5014711;28;20450;-50
2021/01/15 07:00:20;;;;;;;16.77;7.63;;;-0.60;99.90;;;;;;5030917;28;20480;-50
2021/01/15 07:03:27;;;;;;;18.07;8.03;;;-0.70;99.90;;;;;;5034284;28;20454;-50
2021/01/15 07:05:56;;;;;;;21.03;8.20;;;-0.60;99.90;;;;;;5034220;28;20460;-50
2021/01/15 07:08:24;;;;;;;23.10;8.77;;;-0.60;99.90;;;;;;5034101;28;20958;-51
2021/01/15 07:10:51;;;;;;;22.23;8.97;;;-0.70;99.90;;;;;;5033860;28;20556;-50
2021/01/15 07:13:27;;;;;;;21.67;8.87;;;-0.60;99.90;;;;;;5034086;28;20965;-51
2021/01/15 07:15:55;;;;;;;23.40;9.70;;;-0.70;99.90;;;;;;5015810;28;20496;-51
2021/01/15 07:18:32;;;;;;;19.77;9.40;;;-0.70;99.90;;;;;;5014323;28;20458;-51
2021/01/15 07:21:07;;;;;;;24.97;10.40;;;-0.60;99.90;;;;;;5014039;28;20817;-50
2021/01/15 07:24:03;;;;;;;25.27;10.47;;;-0.60;99.90;;;;;;5014083;28;20454;-50
2021/01/15 07:26:39;;;;;;;27.20;10.87;;;-0.60;99.90;;;;;;5001442;28;20482;-50
2021/01/15 07:29:11;;;;;;;25.90;10.53;;;-0.60;99.90;;;;;;5030589;28;20817;-50
2021/01/15 07:31:40;;;;;;;22.53;9.77;;;-0.70;99.90;;;;;;5033644;28;20540;-52
2021/01/15 07:34:16;;;;;;;25.03;10.20;;;-0.70;99.90;;;;;;5033719;28;20995;-52
2021/01/15 07:36:43;;;;;;;26.97;11.03;;;-0.70;99.90;;;;;;5033758;28;20825;-51
2021/01/15 07:39:13;;;;;;;26.37;11.07;;;-0.70;99.90;;;;;;5033458;28;20448;-51
2021/01/15 07:41:45;;;;;;;25.77;10.40;;;-0.70;99.90;;;;;;5032161;28;20457;-51
2021/01/15 07:44:37;;;;;;;22.90;9.83;;;-0.70;99.90;;;;;;5025320;22;21084;-60
2021/01/15 07:47:11;;;;;;;25.47;9.90;;;-0.70;99.90;;;;;;4989782;28;20488;-59
2021/01/15 07:49:49;;;;;;;21.10;9.97;;;-0.70;99.90;;;;;;4993541;28;20466;-60
2021/01/15 07:52:16;;;;;;;21.97;9.70;;;-0.60;99.90;;;;;;4993150;28;20454;-59
2021/01/15 07:55:00;;;;;;;24.97;10.20;;;-0.60;99.90;;;;;;4993792;28;20475;-61
2021/01/15 07:57:27;;;;;;;20.30;9.60;;;-0.60;99.90;;;;;;4974667;28;20642;-61
2021/01/15 07:59:54;;;;;;;23.70;10.40;;;-0.40;99.90;;;;;;4974145;28;20822;-61
2021/01/15 08:02:21;;;;;;;28.40;11.07;;;-0.20;99.90;;;;;;4983797;28;20450;-61
2021/01/15 08:04:49;;;;;;;22.80;9.30;;;-0.10;99.90;;;;;;4993040;28;20468;-61
2021/01/15 08:07:31;;;;;;;20.93;9.80;;;0.00;99.90;;;;;;4991195;28;20488;-61
2021/01/15 08:09:58;;;;;;;23.53;10.30;;;-0.20;99.90;;;;;;4991875;28;20466;-60
2021/01/15 08:12:24;;;;;;;23.87;10.77;;;-0.30;99.90;;;;;;4993381;28;20954;-60
2021/01/15 08:14:51;;;;;;;20.63;9.23;;;-0.40;99.90;;;;;;4993203;28;20839;-61
2021/01/15 08:17:26;;;;;;;23.63;10.40;;;-0.50;99.90;;;;;;4993210;28;20452;-62
2021/01/15 08:19:53;;;;;;;24.73;10.77;;;-0.50;99.90;;;;;;4993062;28;20463;-60
2021/01/15 08:22:22;;;;;;;22.23;10.60;;;-0.50;99.90;;;;;;4993455;28;20478;-61
2021/01/15 08:24:50;;;;;;;22.90;10.47;;;-0.60;99.90;;;;;;4992983;28;20466;-60
2021/01/15 08:27:19;;;;;;;25.00;10.57;;;-0.70;99.90;;;;;;4989355;28;20494;-60
2021/01/15 08:29:46;;;;;;;21.80;10.20;;;-0.70;99.90;;;;;;4992753;28;20478;-62
2021/01/15 08:32:13;;;;;;;27.00;10.57;;;-0.60;99.90;;;;;;4993208;28;20456;-61
2021/01/15 08:34:41;;;;;;;27.67;11.27;;;-0.50;99.90;;;;;;4992585;28;21039;-61
2021/01/15 08:37:09;;;;;;;24.83;10.80;;;-0.60;99.90;;;;;;4992953;28;20451;-60
2021/01/15 08:39:44;;;;;;;24.80;11.10;;;-0.50;99.90;;;;;;4991852;28;20458;-62
2021/01/15 08:42:10;;;;;;;28.30;11.40;;;-0.50;99.90;;;;;;4992934;28;20503;-62
2021/01/15 08:44:38;;;;;;;29.63;11.67;;;-0.60;99.90;;;;;;4992173;28;20486;-60
2021/01/15 08:47:08;;;;;;;21.03;10.10;;;-0.50;99.90;;;;;;4992660;28;20495;-62
2021/01/15 08:49:35;;;;;;;19.93;10.60;;;-0.30;99.90;;;;;;4992897;28;20450;-61
2021/01/15 08:52:03;;;;;;;25.93;11.57;;;-0.30;99.90;;;;;;4992749;28;20456;-60
2021/01/15 08:54:31;;;;;;;24.47;10.70;;;-0.30;99.90;;;;;;4992859;28;20468;-60
2021/01/15 08:56:59;;;;;;;23.83;10.80;;;-0.30;99.90;;;;;;4993079;28;20453;-60
2021/01/15 08:59:27;;;;;;;23.20;10.93;;;-0.30;99.90;;;;;;4992688;28;20452;-61
2021/01/15 09:01:54;;;;;;;22.83;10.97;;;-0.30;99.90;;;;;;4993124;28;20455;-63
2021/01/15 09:04:25;;;;;;;21.13;9.60;;;-0.40;99.90;;;;;;4992150;28;20984;-60
2021/01/15 09:06:53;;;;;;;21.03;10.17;;;-0.30;99.90;;;;;;4992528;28;20488;-63
2021/01/15 09:09:22;;;;;;;20.77;10.10;;;-0.30;99.90;;;;;;4992444;28;20455;-61
2021/01/15 09:11:50;;;;;;;17.90;9.60;;;-0.20;99.90;;;;;;4988986;28;20994;-61
2021/01/15 09:14:20;;;;;;;20.60;9.53;;;-0.20;99.90;;;;;;4991464;28;20472;-61
2021/01/15 09:16:48;;;;;;;19.37;9.30;;;-0.20;99.90;;;;;;4992395;28;20462;-61
2021/01/15 09:19:16;;;;;;;17.27;8.93;;;-0.10;99.90;;;;;;4992278;28;20539;-61
2021/01/15 09:21:47;;;;;;;20.33;9.60;;;0.00;99.90;;;;;;4992254;28;20464;-61
2021/01/15 09:24:13;;;;;;;19.27;8.87;;;0.00;99.90;;;;;;5006308;28;20524;-62
2021/01/15 09:26:41;;;;;;;20.60;9.43;;;0.00;99.90;;;;;;5008090;28;20911;-61
2021/01/15 09:29:09;;;;;;;19.43;8.87;;;0.10;99.90;;;;;;4992241;28;20483;-61
2021/01/15 09:31:36;;;;;;;17.40;8.90;;;0.20;99.90;;;;;;4992327;28;21097;-62
2021/01/15 09:34:10;;;;;;;21.00;8.90;;;0.30;99.90;;;;;;4992310;28;20472;-60
2021/01/15 09:36:40;;;;;;;19.07;9.67;;;0.40;99.90;;;;;;4992394;28;20494;-61
2021/01/15 09:39:11;;;;;;;17.80;9.47;;;0.50;99.90;;;;;;4992177;28;20490;-61
2021/01/15 09:41:44;;;;;;;19.07;9.27;;;0.30;99.90;;;;;;4992352;28;20448;-62
2021/01/15 09:44:12;;;;;;;17.53;8.97;;;0.30;99.90;;;;;;4991643;28;20523;-61
2021/01/15 09:46:39;;;;;;;23.23;11.67;;;0.20;99.90;;;;;;4991993;28;20859;-61
2021/01/15 09:49:09;;;;;;;27.77;14.03;;;0.00;99.90;;;;;;4997154;28;20451;-61
2021/01/15 09:51:36;;;;;;;17.90;9.20;;;0.10;99.90;;;;;;4999386;28;20507;-61
2021/01/15 09:54:06;;;;;;;14.73;8.37;;;0.10;99.90;;;;;;4991621;28;20541;-61
2021/01/15 09:56:33;;;;;;;17.90;8.47;;;0.00;99.90;;;;;;4991825;28;20551;-62
2021/01/15 09:59:06;;;;;;;16.73;7.93;;;0.30;99.90;;;;;;4990622;28;20460;-61
2021/01/15 10:01:32;;;;;;;15.07;7.60;;;0.60;99.90;;;;;;4992080;28;20452;-61
2021/01/15 10:03:59;;;;;;;14.10;7.47;;;1.00;99.90;;;;;;4991182;28;20535;-61
2021/01/15 10:06:28;;;;;;;11.60;7.20;;;1.20;99.90;;;;;;4991829;28;20492;-62
2021/01/15 10:08:55;;;;;;;12.10;7.37;;;1.20;99.90;;;;;;4991076;28;20465;-61
2021/01/15 10:11:24;;;;;;;15.10;7.50;;;1.00;99.90;;;;;;4992162;28;20456;-62
2021/01/15 10:13:53;;;;;;;13.97;8.60;;;0.50;99.90;;;;;;4991519;28;20476;-61
2021/01/15 10:16:21;;;;;;;15.33;7.90;;;0.30;99.90;;;;;;4990993;28;20838;-61
2021/01/15 10:18:47;;;;;;;18.40;7.53;;;0.30;99.90;;;;;;4991658;28;20480;-61
2021/01/15 10:21:14;;;;;;;17.90;9.40;;;0.30;99.90;;;;;;4991803;28;20943;-61
2021/01/15 10:23:40;;;;;;;18.47;8.63;;;0.10;99.90;;;;;;4991537;28;20474;-64
2021/01/15 10:26:07;;;;;;;16.13;8.40;;;-0.20;99.90;;;;;;4991020;28;20451;-61
2021/01/15 10:28:33;;;;;;;17.80;8.07;;;-0.30;99.90;;;;;;4991250;28;20460;-61
2021/01/15 10:31:00;;;;;;;16.63;8.43;;;-0.20;99.90;;;;;;4991215;28;20961;-61
2021/01/15 10:33:27;;;;;;;16.30;7.83;;;-0.30;99.90;;;;;;4991481;28;20479;-61
2021/01/15 10:35:54;;;;;;;14.60;7.77;;;-0.30;99.90;;;;;;4991357;28;20480;-61
2021/01/15 10:38:20;;;;;;;18.60;8.53;;;-0.30;99.90;;;;;;4991183;28;20448;-61
2021/01/15 10:40:47;;;;;;;15.20;8.30;;;-0.50;99.90;;;;;;4991053;28;20514;-61
2021/01/15 10:43:14;;;;;;;20.20;8.43;;;-0.30;99.90;;;;;;4991461;28;20491;-61
2021/01/15 10:45:40;;;;;;;16.40;8.57;;;-0.40;99.90;;;;;;4990985;28;20464;-62
2021/01/15 10:48:08;;;;;;;14.33;7.67;;;-0.30;99.90;;;;;;4991025;28;20486;-62
2021/01/15 10:50:35;;;;;;;18.40;7.10;;;-0.50;99.90;;;;;;4990998;28;20456;-62
2021/01/15 10:53:02;;;;;;;14.20;7.60;;;-0.60;99.90;;;;;;4990526;28;20448;-61
2021/01/15 10:55:28;;;;;;;15.70;7.30;;;-0.50;99.90;;;;;;4991025;28;20464;-61
2021/01/15 10:57:55;;;;;;;21.03;9.00;;;-0.40;99.90;;;;;;4990780;28;20843;-62
2021/01/15 11:00:22;;;;;;;15.60;8.33;;;-0.10;99.90;;;;;;4990597;28;20478;-62
2021/01/15 11:02:49;;;;;;;15.73;7.83;;;-0.30;99.90;;;;;;4991327;28;20451;-62
2021/01/15 11:05:15;;;;;;;15.43;7.10;;;-0.50;99.90;;;;;;4990914;28;20481;-61
2021/01/15 11:07:44;;;;;;;13.70;7.77;;;-0.50;99.90;;;;;;4990984;28;20508;-62
2021/01/15 11:10:12;;;;;;;17.03;8.30;;;-0.60;99.90;;;;;;4991233;28;20545;-61
2021/01/15 11:12:38;;;;;;;13.70;7.40;;;-0.50;99.90;;;;;;4990785;28;20462;-61
2021/01/15 11:15:06;;;;;;;21.60;8.37;;;-0.50;99.90;;;;;;4990561;28;21000;-61
2021/01/15 11:17:33;;;;;;;17.40;9.20;;;-0.60;99.90;;;;;;4990816;28;20591;-61
2021/01/15 11:20:00;;;;;;;14.53;7.93;;;-0.40;99.90;;;;;;4990676;28;20451;-61
2021/01/15 11:22:26;;;;;;;14.20;7.90;;;-0.50;99.90;;;;;;4991170;28;20851;-60
2021/01/15 11:24:53;;;;;;;15.37;8.60;;;-0.60;99.90;;;;;;4990938;28;20470;-62
2021/01/15 11:27:20;;;;;;;16.00;8.40;;;-0.70;99.90;;;;;;4991055;28;20478;-61
2021/01/15 11:29:46;;;;;;;17.97;9.30;;;-0.70;99.90;;;;;;4994087;28;20454;-61
2021/01/15 11:32:17;;;;;;;18.13;9.10;;;-0.70;99.90;;;;;;4994335;28;20454;-61
2021/01/15 11:34:44;;;;;;;15.43;9.00;;;-0.70;99.90;;;;;;4994483;28;20471;-61
2021/01/15 11:37:10;;;;;;;17.53;8.93;;;-0.60;99.90;;;;;;4995146;28;20447;-61
2021/01/15 11:39:37;;;;;;;20.57;10.13;;;-0.70;99.90;;;;;;4994207;28;20477;-63
2021/01/15 11:42:05;;;;;;;19.10;9.80;;;-0.80;99.90;;;;;;4994052;28;20463;-61
2021/01/15 11:44:31;;;;;;;20.50;9.50;;;-0.70;99.90;;;;;;4985241;28;20486;-61
2021/01/15 11:46:58;;;;;;;18.13;9.23;;;-0.80;99.90;;;;;;4994089;28;20480;-60
2021/01/15 11:49:25;;;;;;;17.43;9.10;;;-0.80;99.90;;;;;;4992312;28;20513;-61
2021/01/15 11:51:54;;;;;;;21.17;10.23;;;-0.60;99.90;;;;;;4993600;28;20984;-61
2021/01/15 11:54:20;;;;;;;20.87;10.37;;;-0.60;99.90;;;;;;4993714;28;20846;-60
2021/01/15 11:56:48;;;;;;;24.00;11.73;;;-0.50;99.90;;;;;;4993532;28;21107;-61
2021/01/15 11:59:15;;;;;;;18.90;8.73;;;-0.70;99.90;;;;;;4993340;28;20460;-60
2021/01/15 12:01:42;;;;;;;17.40;9.00;;;-0.40;99.90;;;;;;4994214;28;20506;-60
2021/01/15 12:04:09;;;;;;;22.40;9.70;;;-0.50;99.90;;;;;;4993292;28;20470;-62
2021/01/15 12:06:36;;;;;;;19.30;10.27;;;-0.50;99.90;;;;;;4993567;28;20491;-60
2021/01/15 12:09:03;;;;;;;21.00;10.07;;;-0.30;99.90;;;;;;4993231;28;20459;-59
2021/01/15 12:11:30;;;;;;;22.65;13.70;;;-0.20;99.90;;;;;;4990538;28;20479;-60
2021/01/15 12:13:56;;;;;;;20.00;10.80;;;-0.20;99.90;;;;;;4992429;28;20223;-61
2021/01/15 12:16:24;;;;;;;23.43;11.00;;;-0.20;99.90;;;;;;4992128;28;20460;-61
2021/01/15 12:18:51;;;;;;;20.60;9.83;;;-0.30;99.90;;;;;;4992621;28;21227;-60
2021/01/15 12:21:18;;;;;;;20.90;10.87;;;-0.30;99.90;;;;;;4992446;28;20903;-59
2021/01/15 12:23:45;;;;;;;17.70;9.80;;;-0.50;99.90;;;;;;4992873;28;20482;-61
2021/01/15 12:26:12;;;;;;;22.23;10.37;;;-0.50;99.90;;;;;;5002219;28;20902;-59
2021/01/15 12:28:38;;;;;;;24.03;11.40;;;-0.50;99.90;;;;;;5005515;28;20488;-60
2021/01/15 12:31:05;;;;;;;20.93;11.03;;;-0.40;99.90;;;;;;4973594;28;20459;-60
2021/01/15 12:33:32;;;;;;;23.47;11.70;;;-0.20;99.90;;;;;;4986363;28;20475;-60
2021/01/15 12:35:59;;;;;;;23.00;10.43;;;0.00;99.90;;;;;;4991782;28;20458;-59
2021/01/15 12:38:26;;;;;;;25.60;11.80;;;0.00;99.90;;;;;;4993693;28;20476;-61
2021/01/15 12:40:53;;;;;;;22.30;10.80;;;0.10;99.90;;;;;;4992251;28;20507;-61
2021/01/15 12:43:21;;;;;;;22.40;10.90;;;0.20;99.90;;;;;;4992317;28;20484;-61
2021/01/15 12:45:49;;;;;;;19.77;10.40;;;0.40;99.90;;;;;;4992859;28;20499;-59
2021/01/15 12:48:16;;;;;;;21.87;10.30;;;0.40;99.90;;;;;;4992354;28;21019;-61
2021/01/15 12:50:45;;;;;;;25.17;10.83;;;0.40;99.90;;;;;;4989291;28;20452;-60